createdAt,value
2019-03-31T00:01:37.970Z,87.10
2019-03-31T00:04:09.537Z,87.30
2019-03-31T00:06:41.172Z,87.40
2019-03-31T00:09:12.941Z,87.60
2019-03-31T00:11:44.214Z,87.50
2019-03-31T00:14:15.652Z,88.40
2019-03-31T00:16:47.079Z,87.60
2019-03-31T00:19:18.289Z,87.90
2019-03-31T00:21:49.889Z,88.00
2019-03-31T00:24:22.358Z,88.60
2019-03-31T00:26:53.711Z,88.50
2019-03-31T00:29:25.008Z,88.50
2019-03-31T00:31:56.138Z,88.50
2019-03-31T00:34:27.304Z,88.50
2019-03-31T00:36:58.846Z,88.90
2019-03-31T00:39:30.436Z,88.90
2019-03-31T00:42:01.887Z,89.50
2019-03-31T00:44:34.572Z,89.20
2019-03-31T00:47:05.797Z,89.10
2019-03-31T00:49:37.476Z,89.00
2019-03-31T00:52:09.133Z,88.70
2019-03-31T00:54:40.753Z,88.70
2019-03-31T00:57:11.896Z,89.00
2019-03-31T00:59:43.304Z,88.70
2019-03-31T01:02:18.362Z,88.70
2019-03-31T01:04:49.731Z,88.80
2019-03-31T01:07:22.522Z,88.50
2019-03-31T01:09:55.629Z,88.40
2019-03-31T01:12:47.401Z,88.90
2019-03-31T01:15:23.217Z,88.80
2019-03-31T01:17:55.084Z,88.80
2019-03-31T01:20:26.422Z,88.90
2019-03-31T01:22:57.731Z,88.90
2019-03-31T01:25:29.077Z,89.10
2019-03-31T01:28:00.480Z,89.40
2019-03-31T01:30:32.052Z,89.20
2019-03-31T01:33:03.206Z,88.90
2019-03-31T01:35:35.331Z,88.70
2019-03-31T01:38:06.605Z,89.10
2019-03-31T01:40:38.309Z,88.70
2019-03-31T01:43:09.754Z,88.90
2019-03-31T01:45:41.450Z,88.60
2019-03-31T01:48:12.810Z,88.50
2019-03-31T01:50:44.158Z,88.60
2019-03-31T01:53:15.475Z,88.60
2019-03-31T01:55:46.883Z,88.50
2019-03-31T01:58:18.070Z,88.20
2019-03-31T02:00:53.901Z,88.50
2019-03-31T02:03:25.210Z,88.80
2019-03-31T02:05:56.427Z,88.70
2019-03-31T02:08:27.659Z,88.70
2019-03-31T02:10:59.898Z,88.60
2019-03-31T02:13:31.567Z,88.30
2019-03-31T02:16:03.388Z,88.40
2019-03-31T02:18:34.616Z,88.90
2019-03-31T02:21:06.382Z,89.20
2019-03-31T02:23:38.056Z,88.90
2019-03-31T02:26:09.743Z,88.80
2019-03-31T02:28:41.268Z,89.00
2019-03-31T02:31:12.769Z,88.70
2019-03-31T02:33:43.885Z,89.10
2019-03-31T02:36:15.191Z,88.90
2019-03-31T02:38:47.673Z,89.30
2019-03-31T02:41:19.439Z,89.30
2019-03-31T02:43:50.743Z,89.30
2019-03-31T02:46:22.330Z,89.60
2019-03-31T02:48:53.576Z,89.20
2019-03-31T02:51:25.506Z,89.70
2019-03-31T02:53:57.241Z,89.50
2019-03-31T02:56:29.820Z,89.60
2019-03-31T02:59:02.543Z,90.00
2019-03-31T03:01:34.646Z,90.00
2019-03-31T03:04:08.022Z,90.00
2019-03-31T03:06:41.270Z,90.10
2019-03-31T03:09:12.892Z,90.10
2019-03-31T03:11:45.381Z,90.20
2019-03-31T03:14:17.423Z,90.30
2019-03-31T03:16:48.976Z,90.40
2019-03-31T03:19:20.170Z,90.40
2019-03-31T03:21:51.693Z,90.50
2019-03-31T03:24:22.764Z,90.40
2019-03-31T03:26:54.171Z,90.60
2019-03-31T03:29:27.691Z,90.60
2019-03-31T03:31:59.243Z,90.60
2019-03-31T03:34:30.674Z,90.60
2019-03-31T03:37:02.191Z,90.70
2019-03-31T03:39:33.351Z,90.80
2019-03-31T03:42:04.731Z,90.80
2019-03-31T03:44:36.173Z,90.70
2019-03-31T03:47:07.444Z,90.80
2019-03-31T03:49:38.783Z,90.80
2019-03-31T03:52:10.474Z,90.70
2019-03-31T03:54:41.980Z,90.60
2019-03-31T03:57:13.813Z,90.70
2019-03-31T03:59:45.211Z,90.50
2019-03-31T04:02:16.374Z,90.60
2019-03-31T04:04:47.518Z,90.60
2019-03-31T04:07:19.174Z,90.60
2019-03-31T04:09:50.899Z,90.70
2019-03-31T04:12:22.448Z,90.70
2019-03-31T04:14:53.627Z,90.90
2019-03-31T04:17:27.901Z,90.90
2019-03-31T04:19:59.284Z,90.70
2019-03-31T04:22:30.750Z,90.80
2019-03-31T04:25:01.916Z,90.80
2019-03-31T04:27:33.346Z,90.80
2019-03-31T04:30:04.796Z,90.80
2019-03-31T04:32:38.742Z,90.70
2019-03-31T04:35:09.534Z,90.70
2019-03-31T04:37:41.519Z,90.90
2019-03-31T04:40:13.042Z,90.60
2019-03-31T04:42:44.475Z,90.70
2019-03-31T04:45:16.009Z,90.80
2019-03-31T04:47:47.603Z,90.70
2019-03-31T04:50:18.974Z,90.80
2019-03-31T04:52:50.343Z,90.80
2019-03-31T04:55:21.715Z,90.80
2019-03-31T04:57:53.190Z,90.90
2019-03-31T05:00:24.639Z,91.10
2019-03-31T05:02:55.882Z,91.00
2019-03-31T05:05:27.595Z,91.00
2019-03-31T05:07:58.733Z,91.10
2019-03-31T05:10:29.877Z,91.10
2019-03-31T05:13:01.099Z,91.10
2019-03-31T05:15:32.186Z,91.10
2019-03-31T05:18:03.376Z,91.20
2019-03-31T05:20:34.914Z,91.10
2019-03-31T05:23:06.265Z,91.10
2019-03-31T05:25:38.150Z,90.80
2019-03-31T05:28:09.676Z,90.90
2019-03-31T05:30:40.971Z,90.90
2019-03-31T05:33:12.857Z,91.10
2019-03-31T05:35:45.431Z,91.10
2019-03-31T05:38:16.528Z,91.20
2019-03-31T05:40:48.520Z,91.30
2019-03-31T05:43:19.954Z,91.50
2019-03-31T05:45:52.596Z,91.60
2019-03-31T05:48:23.863Z,91.70
2019-03-31T05:50:55.203Z,91.90
2019-03-31T05:53:26.579Z,92.00
2019-03-31T05:55:58.322Z,92.20
2019-03-31T05:58:29.874Z,92.50
2019-03-31T06:01:01.497Z,92.40
2019-03-31T06:03:34.330Z,92.40
2019-03-31T06:06:05.546Z,92.30
2019-03-31T06:08:36.698Z,92.30
2019-03-31T06:11:08.047Z,92.20
2019-03-31T06:13:39.523Z,92.30
2019-03-31T06:16:10.952Z,92.10
2019-03-31T06:18:42.250Z,92.20
2019-03-31T06:21:13.758Z,92.20
2019-03-31T06:23:45.353Z,92.30
2019-03-31T06:26:16.966Z,92.40
2019-03-31T06:28:47.999Z,92.30
2019-03-31T06:31:19.595Z,92.70
2019-03-31T06:33:50.886Z,92.30
2019-03-31T06:36:22.377Z,92.10
2019-03-31T06:38:53.972Z,92.20
2019-03-31T06:41:25.690Z,91.80
2019-03-31T06:43:57.093Z,91.60
2019-03-31T06:46:28.673Z,91.50
2019-03-31T06:48:59.883Z,91.30
2019-03-31T06:51:31.204Z,91.10
2019-03-31T06:54:02.606Z,91.10
2019-03-31T06:56:33.978Z,91.10
2019-03-31T06:59:05.406Z,91.30
2019-03-31T07:01:36.823Z,91.40
2019-03-31T07:04:08.050Z,91.40
2019-03-31T07:06:39.445Z,90.00
2019-03-31T07:09:11.001Z,89.00
2019-03-31T07:11:42.046Z,88.90
2019-03-31T07:14:13.422Z,88.40
2019-03-31T07:16:44.868Z,89.30
2019-03-31T07:19:16.694Z,88.80
2019-03-31T07:21:48.149Z,88.10
2019-03-31T07:24:19.891Z,88.20
2019-03-31T07:26:51.291Z,88.30
2019-03-31T07:29:22.794Z,87.30
2019-03-31T07:31:54.210Z,87.50
2019-03-31T07:34:25.775Z,86.00
2019-03-31T07:36:57.100Z,85.80
2019-03-31T07:39:28.750Z,85.50
2019-03-31T07:42:00.444Z,85.10
2019-03-31T07:44:31.779Z,85.00
2019-03-31T07:47:02.937Z,84.70
2019-03-31T07:49:34.367Z,84.60
2019-03-31T07:52:05.572Z,83.40
2019-03-31T07:54:36.985Z,84.30
2019-03-31T07:57:08.389Z,83.50
2019-03-31T07:59:39.615Z,83.10
2019-03-31T08:02:10.993Z,82.40
2019-03-31T08:04:42.398Z,81.70
2019-03-31T08:07:13.630Z,81.30
2019-03-31T08:09:45.363Z,81.20
2019-03-31T08:12:16.802Z,81.60
2019-03-31T08:14:48.261Z,80.30
2019-03-31T08:17:19.721Z,79.30
2019-03-31T08:19:51.487Z,77.40
2019-03-31T08:22:22.778Z,74.70
2019-03-31T08:24:54.073Z,73.90
2019-03-31T08:27:25.875Z,72.50
2019-03-31T08:30:00.807Z,68.20
2019-03-31T08:32:30.190Z,62.20
2019-03-31T08:35:01.799Z,60.10
2019-03-31T08:37:34.707Z,57.20
2019-03-31T08:40:06.714Z,55.00
2019-03-31T08:42:38.256Z,51.20
2019-03-31T08:45:10.142Z,48.40
2019-03-31T08:47:41.479Z,44.40
2019-03-31T08:50:14.091Z,41.90
2019-03-31T08:52:45.686Z,38.10
2019-03-31T08:55:17.352Z,35.40
2019-03-31T08:57:48.799Z,30.20
2019-03-31T09:00:29.631Z,27.90
2019-03-31T09:03:00.950Z,25.50
2019-03-31T09:05:32.702Z,24.60
2019-03-31T09:08:03.876Z,23.30
2019-03-31T09:10:35.027Z,21.80
2019-03-31T09:13:06.488Z,20.80
2019-03-31T09:15:38.087Z,20.90
2019-03-31T09:18:09.366Z,19.80
2019-03-31T09:20:40.498Z,19.00
2019-03-31T09:23:11.957Z,19.00
2019-03-31T09:25:43.702Z,18.40
2019-03-31T09:28:15.373Z,18.10
2019-03-31T09:30:46.871Z,17.30
2019-03-31T09:33:18.050Z,18.10
2019-03-31T09:35:49.697Z,17.80
2019-03-31T09:38:20.914Z,17.60
2019-03-31T09:40:52.443Z,19.00
2019-03-31T09:43:23.793Z,18.00
2019-03-31T09:45:55.089Z,17.50
2019-03-31T09:48:26.457Z,17.30
2019-03-31T09:50:58.130Z,17.60
2019-03-31T09:53:29.824Z,17.00
2019-03-31T09:56:01.268Z,16.60
2019-03-31T09:58:32.558Z,17.20
2019-03-31T10:01:03.828Z,17.00
2019-03-31T10:03:35.094Z,16.90
2019-03-31T10:06:11.144Z,16.50
2019-03-31T10:08:39.866Z,16.10
2019-03-31T10:11:11.423Z,15.70
2019-03-31T10:13:43.125Z,16.40
2019-03-31T10:16:14.537Z,15.40
2019-03-31T10:18:46.159Z,15.30
2019-03-31T10:21:17.907Z,15.60
2019-03-31T10:23:49.738Z,15.80
2019-03-31T10:26:31.879Z,16.80
2019-03-31T10:28:54.566Z,17.20
2019-03-31T10:31:26.029Z,16.80
2019-03-31T10:33:57.674Z,16.50
2019-03-31T10:36:43.382Z,16.00
2019-03-31T10:39:02.430Z,16.60
2019-03-31T10:41:35.221Z,15.60
2019-03-31T10:44:06.430Z,16.20
2019-03-31T10:46:38.097Z,16.20
2019-03-31T10:49:09.387Z,15.80
2019-03-31T10:51:40.943Z,16.10
2019-03-31T10:54:12.154Z,16.60
2019-03-31T10:56:43.860Z,15.60
2019-03-31T10:59:14.998Z,15.10
2019-03-31T11:01:47.474Z,15.20
2019-03-31T11:04:19.842Z,15.10
2019-03-31T11:06:58.846Z,15.10
2019-03-31T11:09:24.232Z,15.50
2019-03-31T11:11:55.643Z,15.50
2019-03-31T11:14:27.191Z,16.50
2019-03-31T11:16:58.362Z,17.70
2019-03-31T11:19:30.110Z,18.70
2019-03-31T11:22:13.146Z,19.10
2019-03-31T11:24:44.626Z,18.40
2019-03-31T11:27:15.888Z,19.10
2019-03-31T11:29:47.834Z,18.70
2019-03-31T11:32:19.020Z,19.20
2019-03-31T11:34:50.332Z,18.90
2019-03-31T11:37:21.934Z,18.50
2019-03-31T11:39:53.068Z,18.30
2019-03-31T11:42:24.707Z,18.50
2019-03-31T11:44:56.040Z,18.40
2019-03-31T11:47:27.166Z,18.50
2019-03-31T11:49:58.497Z,18.20
2019-03-31T11:52:30.083Z,18.60
2019-03-31T11:55:01.718Z,18.50
2019-03-31T11:57:34.658Z,18.70
2019-03-31T12:00:07.374Z,18.90
2019-03-31T12:02:40.097Z,19.00
2019-03-31T12:05:12.070Z,20.00
2019-03-31T12:07:46.999Z,21.00
2019-03-31T12:10:19.666Z,21.60
2019-03-31T12:12:49.495Z,22.80
2019-03-31T12:15:20.922Z,23.00
2019-03-31T12:17:52.685Z,23.70
2019-03-31T12:20:24.307Z,24.30
2019-03-31T12:22:55.515Z,25.70
2019-03-31T12:25:26.861Z,24.90
2019-03-31T12:27:58.379Z,25.80
2019-03-31T12:30:30.406Z,25.50
2019-03-31T12:33:02.114Z,25.90
2019-03-31T12:35:33.893Z,26.30
2019-03-31T12:38:06.558Z,26.70
2019-03-31T12:40:38.186Z,26.50
2019-03-31T12:43:10.051Z,26.70
2019-03-31T12:45:43.358Z,27.40
2019-03-31T12:48:16.052Z,26.20
2019-03-31T12:50:47.697Z,28.30
2019-03-31T12:53:19.495Z,27.70
2019-03-31T12:56:00.112Z,27.40
2019-03-31T12:58:23.727Z,27.40
2019-03-31T13:00:55.342Z,26.40
2019-03-31T13:03:27.141Z,27.40
2019-03-31T13:05:58.576Z,27.90
2019-03-31T13:08:30.330Z,27.30
2019-03-31T13:11:02.818Z,27.40
2019-03-31T13:13:34.536Z,27.40
2019-03-31T13:16:06.039Z,28.20
2019-03-31T13:18:37.438Z,27.90
2019-03-31T13:21:10.440Z,28.40
2019-03-31T13:23:43.412Z,27.50
2019-03-31T13:26:15.090Z,28.00
2019-03-31T13:28:46.874Z,27.20
2019-03-31T13:31:18.736Z,27.80
2019-03-31T13:33:49.919Z,28.60
2019-03-31T13:36:21.363Z,29.80
2019-03-31T13:38:53.026Z,28.90
2019-03-31T13:41:24.625Z,28.80
2019-03-31T13:43:55.954Z,28.00
2019-03-31T13:46:27.289Z,28.00
2019-03-31T13:48:58.310Z,27.70
2019-03-31T13:51:29.814Z,27.30
2019-03-31T13:54:01.354Z,27.20
2019-03-31T13:56:33.724Z,27.60
2019-03-31T13:59:08.973Z,27.40
2019-03-31T14:01:39.450Z,26.90
2019-03-31T14:04:11.214Z,26.70
2019-03-31T14:06:42.718Z,26.50
2019-03-31T14:09:13.946Z,26.90
2019-03-31T14:11:48.402Z,26.80
2019-03-31T14:14:20.351Z,26.60
2019-03-31T14:16:51.914Z,27.40
2019-03-31T14:19:22.962Z,26.30
2019-03-31T14:21:54.329Z,27.20
2019-03-31T14:24:27.086Z,27.50
2019-03-31T14:26:58.568Z,27.30
2019-03-31T14:29:30.062Z,26.20
2019-03-31T14:32:01.291Z,26.60
2019-03-31T14:34:34.766Z,25.50
2019-03-31T14:37:06.300Z,26.00
2019-03-31T14:39:37.642Z,25.90
2019-03-31T14:42:09.407Z,25.90
2019-03-31T14:44:41.765Z,25.40
2019-03-31T14:47:14.047Z,25.50
2019-03-31T14:49:45.739Z,25.50
2019-03-31T14:52:27.242Z,25.90
2019-03-31T14:54:49.852Z,26.00
2019-03-31T14:57:21.267Z,26.40
2019-03-31T14:59:52.995Z,25.70
2019-03-31T15:02:24.722Z,26.20
2019-03-31T15:04:56.222Z,25.60
2019-03-31T15:07:27.688Z,29.20
2019-03-31T15:09:59.129Z,29.40
2019-03-31T15:12:30.606Z,29.00
2019-03-31T15:15:01.854Z,28.10
2019-03-31T15:17:33.542Z,28.20
2019-03-31T15:20:05.502Z,27.60
2019-03-31T15:22:37.331Z,27.90
2019-03-31T15:25:08.402Z,27.30
2019-03-31T15:27:39.493Z,27.10
2019-03-31T15:30:11.007Z,26.90
2019-03-31T15:32:42.514Z,26.80
2019-03-31T15:35:14.586Z,26.90
2019-03-31T15:37:46.346Z,27.30
2019-03-31T15:40:17.706Z,27.20
2019-03-31T15:42:49.460Z,27.00
2019-03-31T15:45:22.598Z,27.10
2019-03-31T15:47:55.482Z,27.40
2019-03-31T15:50:26.967Z,27.60
2019-03-31T15:52:58.701Z,27.90
2019-03-31T15:55:30.076Z,27.60
2019-03-31T15:58:01.155Z,28.00
2019-03-31T16:00:32.811Z,28.00
2019-03-31T16:03:04.553Z,28.00
2019-03-31T16:05:36.218Z,28.00
2019-03-31T16:08:07.058Z,28.00
2019-03-31T16:10:38.162Z,27.70
2019-03-31T16:13:09.477Z,27.50
2019-03-31T16:15:40.480Z,28.00
2019-03-31T16:18:13.592Z,27.70
2019-03-31T16:20:44.143Z,27.80
2019-03-31T16:23:14.616Z,27.50
2019-03-31T16:25:49.082Z,27.80
2019-03-31T16:28:20.007Z,27.70
2019-03-31T16:30:50.890Z,27.50
2019-03-31T16:33:22.100Z,27.40
2019-03-31T16:35:52.744Z,26.60
2019-03-31T16:38:25.697Z,26.80
2019-03-31T16:40:56.181Z,26.70
2019-03-31T16:43:28.760Z,26.50
2019-03-31T16:45:59.882Z,26.50
2019-03-31T16:48:30.559Z,26.50
2019-03-31T16:51:01.762Z,27.20
2019-03-31T16:53:33.014Z,27.30
2019-03-31T16:56:04.018Z,27.60
2019-03-31T16:58:35.222Z,27.20
2019-03-31T17:01:06.335Z,27.60
2019-03-31T17:03:37.227Z,27.70
2019-03-31T17:06:07.838Z,28.00
2019-03-31T17:08:38.951Z,28.30
2019-03-31T17:11:09.599Z,29.20
2019-03-31T17:13:40.579Z,29.10
2019-03-31T17:16:11.238Z,29.30
2019-03-31T17:18:42.326Z,29.10
2019-03-31T17:21:13.026Z,29.40
2019-03-31T17:23:44.209Z,29.30
2019-03-31T17:26:17.961Z,29.70
2019-03-31T17:28:50.595Z,30.00
2019-03-31T17:31:21.359Z,29.70
2019-03-31T17:33:51.966Z,29.70
2019-03-31T17:36:22.543Z,30.00
2019-03-31T17:38:53.151Z,29.90
2019-03-31T17:41:24.134Z,29.90
2019-03-31T17:43:54.598Z,29.90
2019-03-31T17:46:25.162Z,30.10
2019-03-31T17:48:55.746Z,30.00
2019-03-31T17:51:26.347Z,30.40
2019-03-31T17:53:58.208Z,30.70
2019-03-31T17:56:29.098Z,31.10
2019-03-31T17:58:59.583Z,31.10
2019-03-31T18:01:30.160Z,31.10
2019-03-31T18:04:01.061Z,31.50
2019-03-31T18:06:31.999Z,32.20
2019-03-31T18:09:03.474Z,31.60
2019-03-31T18:11:35.786Z,31.90
2019-03-31T18:14:07.021Z,32.30
2019-03-31T18:16:38.099Z,32.20
2019-03-31T18:19:08.800Z,32.70
2019-03-31T18:21:39.447Z,34.60
2019-03-31T18:24:10.576Z,33.90
2019-03-31T18:26:41.642Z,34.90
2019-03-31T18:29:12.501Z,34.30
2019-03-31T18:31:43.740Z,35.70
2019-03-31T18:34:15.039Z,34.40
2019-03-31T18:36:45.727Z,34.30
2019-03-31T18:39:16.417Z,34.10
2019-03-31T18:41:47.110Z,33.50
2019-03-31T18:44:18.078Z,33.80
2019-03-31T18:46:48.958Z,33.80
2019-03-31T18:49:20.186Z,33.50
2019-03-31T18:51:51.070Z,33.60
2019-03-31T18:54:40.947Z,33.60
2019-03-31T18:57:29.102Z,33.40
2019-03-31T19:00:17.370Z,33.60
2019-03-31T19:03:16.586Z,33.30
2019-03-31T19:06:06.315Z,33.40
2019-03-31T19:09:11.638Z,33.30
2019-03-31T19:12:10.596Z,33.20
2019-03-31T19:15:12.462Z,32.90
2019-03-31T19:18:06.321Z,33.20
2019-03-31T19:21:11.006Z,33.30
2019-03-31T19:23:57.912Z,33.10
2019-03-31T19:26:48.566Z,33.30
2019-03-31T19:29:43.186Z,33.70
2019-03-31T19:32:22.790Z,33.80
2019-03-31T19:35:18.303Z,34.00
2019-03-31T19:38:05.018Z,33.90
2019-03-31T19:41:04.402Z,33.90
2019-03-31T19:44:03.688Z,33.90
2019-03-31T19:46:50.850Z,34.00
2019-03-31T19:49:32.098Z,34.00
2019-03-31T19:52:22.055Z,34.80
2019-03-31T19:55:10.723Z,34.60
2019-03-31T19:57:52.198Z,34.40
2019-03-31T20:00:40.945Z,35.20
2019-03-31T20:03:34.769Z,34.80
2019-03-31T20:06:25.647Z,35.10
2019-03-31T20:09:14.475Z,35.00
2019-03-31T20:12:04.141Z,34.90
2019-03-31T20:14:56.694Z,35.00
2019-03-31T20:17:45.331Z,34.90
2019-03-31T20:20:34.095Z,35.20
2019-03-31T20:23:23.744Z,35.50
2019-03-31T20:26:19.008Z,35.70
2019-03-31T20:29:20.738Z,35.90
2019-03-31T20:32:17.521Z,36.00
2019-03-31T20:35:02.407Z,36.10
2019-03-31T20:37:59.285Z,36.20
2019-03-31T20:40:57.593Z,36.60
2019-03-31T20:43:50.011Z,36.50
2019-03-31T20:46:20.913Z,36.80
2019-03-31T20:48:52.105Z,36.40
2019-03-31T20:51:22.902Z,36.70
2019-03-31T20:53:53.542Z,36.60
2019-03-31T20:56:24.547Z,36.70
2019-03-31T20:58:55.428Z,36.70
2019-03-31T21:01:26.980Z,36.70
2019-03-31T21:03:58.026Z,36.70
2019-03-31T21:06:29.066Z,36.70
2019-03-31T21:08:59.793Z,36.90
2019-03-31T21:11:30.250Z,37.00
2019-03-31T21:14:01.087Z,36.80
2019-03-31T21:16:33.722Z,37.30
2019-03-31T21:19:04.785Z,37.40
2019-03-31T21:21:35.360Z,37.30
2019-03-31T21:24:07.694Z,37.60
2019-03-31T21:26:38.346Z,37.40
2019-03-31T21:29:09.174Z,37.40
2019-03-31T21:31:39.962Z,37.50
2019-03-31T21:34:10.590Z,38.10
2019-03-31T21:36:41.503Z,38.00
2019-03-31T21:39:12.246Z,38.60
2019-03-31T21:41:42.829Z,38.60
2019-03-31T21:44:14.078Z,38.40
2019-03-31T21:46:44.774Z,38.60
2019-03-31T21:49:15.614Z,38.40
2019-03-31T21:51:46.698Z,38.50
2019-03-31T21:54:17.524Z,38.60
2019-03-31T21:56:48.602Z,38.40
2019-03-31T21:59:19.922Z,38.40
2019-03-31T22:01:51.048Z,38.40
2019-03-31T22:04:21.902Z,38.60
2019-03-31T22:06:52.875Z,39.00
2019-03-31T22:09:23.558Z,39.00
2019-03-31T22:11:54.285Z,39.10
2019-03-31T22:14:25.435Z,39.20
2019-03-31T22:16:56.063Z,39.20
2019-03-31T22:19:26.563Z,39.60
2019-03-31T22:21:57.406Z,39.70
2019-03-31T22:24:28.096Z,39.70
2019-03-31T22:26:58.734Z,39.70
2019-03-31T22:29:29.454Z,39.80
2019-03-31T22:32:00.054Z,40.30
2019-03-31T22:34:30.826Z,40.40
2019-03-31T22:37:02.050Z,40.90
2019-03-31T22:39:32.800Z,40.80
2019-03-31T22:42:03.562Z,41.00
2019-03-31T22:44:34.100Z,41.40
2019-03-31T22:47:05.299Z,41.30
2019-03-31T22:49:36.163Z,41.50
2019-03-31T22:52:06.846Z,41.60
2019-03-31T22:54:37.386Z,42.30
2019-03-31T22:57:07.911Z,42.10
2019-03-31T22:59:38.800Z,42.00
2019-03-31T23:02:10.752Z,42.20
2019-03-31T23:04:41.583Z,42.40
2019-03-31T23:07:12.274Z,42.60
2019-03-31T23:09:43.147Z,42.70
2019-03-31T23:12:14.161Z,43.10
2019-03-31T23:14:44.825Z,43.20
2019-03-31T23:17:16.067Z,43.40
2019-03-31T23:19:48.155Z,43.40
2019-03-31T23:22:19.210Z,43.10
2019-03-31T23:24:50.312Z,43.50
2019-03-31T23:27:21.518Z,43.40
2019-03-31T23:29:52.223Z,43.50
2019-03-31T23:32:22.746Z,44.10
2019-03-31T23:34:53.771Z,43.90
2019-03-31T23:37:24.402Z,43.90
2019-03-31T23:39:55.455Z,43.90
2019-03-31T23:42:26.050Z,44.80
2019-03-31T23:44:56.601Z,44.50
2019-03-31T23:47:27.595Z,44.20
2019-03-31T23:49:58.274Z,44.60
2019-03-31T23:52:29.033Z,44.60
2019-03-31T23:55:00.342Z,44.70
2019-03-31T23:57:41.064Z,44.80
